Chennai, India
Current Conditions -  °F | °C
As of 6:40 AM on Tuesday 25 Nov 2014 (Local Time) from VOMM Reporting Station
Haze Haze  
Wind Chill: 73°   Ceiling: Unl
Heat Index: 73°   Visibility: 1.8mi
Dew Point: 70°   Wind: 0mph
Humidity: 88%   Direction: NA
Pressure: 29.88"   Gusts: NA
Location:  13.06°N, 80.25°E
Report Text: VOMM 250140Z 00000KT 3000 BR SCT020 23/21 Q1012 NOSIG
Loading
Personal Weather Stations






























Interactive Weather Map New forecast layout! Learn more

10-Day Weather Forecast

Advertisements
Track Severe Weather on mobile